»·PEaware :: N73AA 1S5-KYKM

N73AA :: 1S5-KYKM

FLIGHT INFORMATION

Flight Status: Arrived
Operator: Privately registered:
United States
More flights under this callsign
Pilot: Anonymous 32956 (32956)
Aircraft: CESSNA 172 SKYHAWK
(C172)
More flights by this aircraft type
Origin: 1S5 Sunnyside Mun
United States
Destination: KYKM Yakima Air Term/Mcallister
United States
More flights between these airports :: More routes between these airports
Route:
File this flight plan on PilotEdge
Remarks:
Altitude:
(Current/Filed)
6,000ft
Speed:
(Current/Filed)
110kts
Departed: 11-Jan-21 03:17 PM
Arrived: 11-Jan-21 03:49 PM
Distance/Time
Traveled:
28nm/0:31
Distance/Time
To Go:
Arrived

Flight Plot

Page will automatically refresh every two minutes.

Flight plan parsing failed; only flown route is shown


Map Options




Map Legend


Flown Route
Filed Route
Departure Airport
Arrival Airport
Navaid (VOR, NDB)
Fix

Horizontal Profiles

Position Reports

Time Latitude Longitude Heading Altitude Ground
Speed
11-Jan-21 14:50 46.326004 -119.967931 0 768ft 0kts
11-Jan-21 14:51 46.326004 -119.967931 0 768ft 0kts
11-Jan-21 14:52 46.326004 -119.967931 359 768ft 0kts
11-Jan-21 14:52 46.326004 -119.967931 0 768ft 0kts
11-Jan-21 14:53 46.326004 -119.967931 0 768ft 0kts
11-Jan-21 14:55 46.326004 -119.967931 0 768ft 0kts
11-Jan-21 14:56 46.326004 -119.967931 0 768ft 0kts
11-Jan-21 14:56 46.326004 -119.967931 0 768ft 0kts
11-Jan-21 14:57 46.326004 -119.967931 0 768ft 0kts
11-Jan-21 14:58 46.326004 -119.967931 0 768ft 0kts
11-Jan-21 14:59 46.326004 -119.967931 0 768ft 0kts
11-Jan-21 15:00 46.326004 -119.967931 0 768ft 0kts
11-Jan-21 15:01 46.326004 -119.967931 0 768ft 0kts
11-Jan-21 15:02 46.326004 -119.967931 0 768ft 0kts
11-Jan-21 15:03 46.326004 -119.967931 0 768ft 0kts
11-Jan-21 15:04 46.326004 -119.967931 0 768ft 0kts
11-Jan-21 15:05 46.326004 -119.967931 0 768ft 0kts
11-Jan-21 15:06 46.326004 -119.967931 0 768ft 0kts
11-Jan-21 15:07 46.326004 -119.967931 0 768ft 0kts
11-Jan-21 15:08 46.326004 -119.967931 0 768ft 0kts
11-Jan-21 15:09 46.326004 -119.967931 0 768ft 0kts
11-Jan-21 15:10 46.326004 -119.967930 359 768ft 0kts
11-Jan-21 15:11 46.326244 -119.967409 63 769ft 8kts
11-Jan-21 15:12 46.326735 -119.966614 97 771ft 4kts
11-Jan-21 15:13 46.326693 -119.964918 90 771ft 11kts
11-Jan-21 15:14 46.326784 -119.964391 40 771ft 2kts
11-Jan-21 15:15 46.327124 -119.964815 268 771ft 2kts
11-Jan-21 15:16 46.327167 -119.972324 269 894ft 65kts
11-Jan-21 15:17 46.327427 -119.985922 290 1274ft 76kts
11-Jan-21 15:18 46.332385 -119.998566 308 1674ft 80kts
11-Jan-21 15:19 46.339595 -120.009127 303 2090ft 79kts
11-Jan-21 15:20 46.346261 -120.022052 306 2508ft 80kts
11-Jan-21 15:21 46.354032 -120.036688 305 2675ft 104kts
11-Jan-21 15:22 46.363741 -120.055248 305 2669ft 114kts
11-Jan-21 15:23 46.374071 -120.075049 305 2668ft 115kts
11-Jan-21 15:24 46.384501 -120.095083 305 2620ft 125kts
11-Jan-21 15:25 46.395128 -120.116845 297 2669ft 135kts
11-Jan-21 15:26 46.402481 -120.139150 292 2669ft 137kts
11-Jan-21 15:27 46.410543 -120.164704 292 2668ft 138kts
11-Jan-21 15:28 46.418496 -120.189968 292 2668ft 138kts
11-Jan-21 15:29 46.425152 -120.211136 292 2668ft 139kts
11-Jan-21 15:30 46.432223 -120.233662 292 2668ft 139kts
11-Jan-21 15:31 46.439642 -120.257328 292 2668ft 139kts
11-Jan-21 15:32 46.447342 -120.281800 294 2668ft 139kts
11-Jan-21 15:33 46.458236 -120.303309 309 2668ft 140kts
11-Jan-21 15:34 46.470973 -120.322410 313 2668ft 140kts
11-Jan-21 15:35 46.483702 -120.341211 313 2668ft 140kts
11-Jan-21 15:36 46.496696 -120.360439 313 2668ft 140kts
11-Jan-21 15:37 46.507678 -120.382435 301 2667ft 139kts
11-Jan-21 15:38 46.517754 -120.405017 301 2672ft 140kts
11-Jan-21 15:39 46.527523 -120.426951 301 2661ft 138kts
11-Jan-21 15:40 46.536242 -120.450409 296 2426ft 142kts
11-Jan-21 15:41 46.544047 -120.471114 299 2646ft 113kts
11-Jan-21 15:42 46.550401 -120.483425 318 2667ft 70kts
11-Jan-21 15:43 46.555861 -120.493389 293 2403ft 67kts
11-Jan-21 15:44 46.558774 -120.504038 290 2142ft 63kts
11-Jan-21 15:45 46.561511 -120.515231 292 1721ft 67kts
11-Jan-21 15:46 46.563898 -120.524912 290 1305ft 68kts
11-Jan-21 15:47 46.566128 -120.533748 288 1051ft 45kts
11-Jan-21 15:48 46.567198 -120.538166 290 1058ft 21kts
11-Jan-21 15:49 46.568431 -120.539496 28 1063ft 14kts
11-Jan-21 15:50 46.568914 -120.539673 335 1063ft 5kts
11-Jan-21 15:51 46.569531 -120.540257 256 1064ft 8kts
11-Jan-21 15:52 46.569442 -120.540470 226 1064ft 0kts
11-Jan-21 15:53 46.569441 -120.540472 225 1064ft 0kts
11-Jan-21 15:54 46.569441 -120.540472 225 1064ft 0kts
11-Jan-21 15:55 46.569441 -120.540472 225 1064ft 0kts
11-Jan-21 15:56 46.569441 -120.540472 225 1064ft 0kts

Navigation Log

Ident Type
Flight plan parsing failed, navigation log unavailable